X  Chiuso Dati meteorologici dell'aviazione (METAR)     LIRA Ciampino–G. B. Pastine International Airport
Temperatura
10°C Temperatura
1°C Punto di rugiada
54% Umidità



Vento
23 KM/H
14 MPH
6 M/S
12 KTS



170°
Sud
Condizioni attuali

Nuvole per lo più sparse Nuvole per lo più sparse
Pressione 1009.92 (hPa) - 29.82 (inHg)
Visibilità 6.2 (miglio) - 10 (km)
Aeroporto
Aeroporto-code LIRA

Posizione: Ciampino–G. B. Pastine International Airport
Distanza: 6 (km)

Metar:
LIRA 080620Z 17012KT 9999 SCT050 10/01 Q1010

Ore: 08-12-2021 07:20 CET